Time;durP1;ratioP1;P1;durP2;ratioP2;P2;SDS_P1;SDS_P2;PMS_P1;PMS_P2;Temp;Humidity;BMP_temperature;BMP_pressure;BME280_temperature;BME280_humidity;BME280_pressure;Samples;Min_cycle;Max_cycle;Signal;HPM_P1;HPM_P2
2024/01/03 00:00:39;;;;;;;;;;;;;;;;;;5073073;28;19919;-73
2024/01/03 00:03:06;;;;;;;;;;;;;;;;;;5075488;28;19913;-73
2024/01/03 00:05:32;;;;;;;;;;;;;;;;;;5075269;28;19913;-73
2024/01/03 00:07:58;;;;;;;;;;;;;;;;;;5075273;28;19909;-73
2024/01/03 00:10:24;;;;;;;;;;;;;;;;;;5075449;28;20327;-73
2024/01/03 00:12:50;;;;;;;;;;;;;;;;;;5075272;28;19909;-73
2024/01/03 00:15:16;;;;;;;;;;;;;;;;;;5075399;28;19909;-73
2024/01/03 00:17:43;;;;;;;;;;;;;;;;;;5075385;28;19919;-73
2024/01/03 00:20:09;;;;;;;;;;;;;;;;;;5075230;28;19918;-73
2024/01/03 00:22:35;;;;;;;;;;;;;;;;;;5075275;28;19908;-73
2024/01/03 00:25:01;;;;;;;;;;;;;;;;;;5075066;28;19908;-73
2024/01/03 00:27:27;;;;;;;;;;;;;;;;;;5075142;28;19909;-73
2024/01/03 00:29:54;;;;;;;;;;;;;;;;;;5074709;28;19908;-73
2024/01/03 00:32:20;;;;;;;;;;;;;;;;;;5075272;28;19909;-73
2024/01/03 00:34:46;;;;;;;;;;;;;;;;;;5074978;28;19916;-73
2024/01/03 00:37:12;;;;;;;;;;;;;;;;;;5075424;28;19908;-73
2024/01/03 00:39:38;;;;;;;;;;;;;;;;;;5074941;28;19908;-73
2024/01/03 00:42:05;;;;;;;;;;;;;;;;;;5075092;28;20005;-73
2024/01/03 00:44:31;;;;;;;;;;;;;;;;;;5074581;28;19908;-73
2024/01/03 00:46:57;;;;;;;;;;;;;;;;;;5074850;28;19916;-73
2024/01/03 00:49:24;;;;;;;;;;;;;;;;;;5074567;28;19908;-73
2024/01/03 00:51:51;;;;;;;;;;;;;;;;;;5074746;28;20396;-73
2024/01/03 00:54:17;;;;;;;;;;;;;;;;;;5074597;28;20389;-73
2024/01/03 00:56:43;;;;;;;;;;;;;;;;;;5074838;28;19912;-73
2024/01/03 00:59:09;;;;;;;;;;;;;;;;;;5074385;28;19954;-74
2024/01/03 01:01:35;;;;;;;;;;;;;;;;;;5074600;28;20307;-74
2024/01/03 01:04:02;;;;;;;;;;;;;;;;;;5074621;28;19908;-73
2024/01/03 01:06:28;;;;;;;;;;;;;;;;;;5065252;28;20290;-73
2024/01/03 01:08:55;;;;;;;;;;;;;;;;;;5067998;28;19924;-73
2024/01/03 01:11:21;;;;;;;;;;;;;;;;;;5074317;28;19912;-73
2024/01/03 01:13:47;;;;;;;;;;;;;;;;;;5073884;28;19914;-73
2024/01/03 01:16:13;;;;;;;;;;;;;;;;;;5074285;28;19912;-73
2024/01/03 01:18:39;;;;;;;;;;;;;;;;;;5074147;28;19909;-74
2024/01/03 01:21:05;;;;;;;;;;;;;;;;;;5074188;28;19935;-74
2024/01/03 01:23:33;;;;;;;;;;;;;;;;;;5074012;28;19923;-73
2024/01/03 01:25:59;;;;;;;;;;;;;;;;;;5074105;28;19927;-73
2024/01/03 01:28:25;;;;;;;;;;;;;;;;;;5074025;28;19919;-73
2024/01/03 01:30:52;;;;;;;;;;;;;;;;;;5074012;28;19916;-73
2024/01/03 01:33:18;;;;;;;;;;;;;;;;;;5073890;28;20308;-73
2024/01/03 01:35:44;;;;;;;;;;;;;;;;;;5074122;28;19984;-74
2024/01/03 01:38:10;;;;;;;;;;;;;;;;;;5074077;28;19908;-74
2024/01/03 01:40:36;;;;;;;;;;;;;;;;;;5073585;28;19930;-74
2024/01/03 01:43:02;;;;;;;;;;;;;;;;;;5073832;28;19912;-73
2024/01/03 01:45:29;;;;;;;;;;;;;;;;;;5055899;28;19977;-73
2024/01/03 01:47:55;;;;;;;;;;;;;;;;;;5073416;28;19912;-73
2024/01/03 01:50:21;;;;;;;;;;;;;;;;;;5073661;28;19917;-73
2024/01/03 01:52:48;;;;;;;;;;;;;;;;;;5073383;28;20399;-73
2024/01/03 01:55:15;;;;;;;;;;;;;;;;;;5073532;28;20273;-73
2024/01/03 01:57:41;;;;;;;;;;;;;;;;;;5073466;28;19909;-73
2024/01/03 02:00:07;;;;;;;;;;;;;;;;;;5073271;28;19912;-74
2024/01/03 02:02:33;;;;;;;;;;;;;;;;;;5073315;28;19908;-73
2024/01/03 02:04:59;;;;;;;;;;;;;;;;;;5073258;28;20343;-73
2024/01/03 02:07:26;;;;;;;;;;;;;;;;;;5073287;28;19925;-73
2024/01/03 02:09:53;;;;;;;;;;;;;;;;;;5072894;28;19912;-72
2024/01/03 02:12:19;;;;;;;;;;;;;;;;;;5073379;28;19915;-73
2024/01/03 02:14:45;;;;;;;;;;;;;;;;;;5072988;28;19908;-73
2024/01/03 02:17:11;;;;;;;;;;;;;;;;;;5072973;28;19912;-73
2024/01/03 02:19:37;;;;;;;;;;;;;;;;;;5072937;28;19912;-73
2024/01/03 02:22:04;;;;;;;;;;;;;;;;;;5073177;28;20015;-73
2024/01/03 02:24:30;;;;;;;;;;;;;;;;;;5072061;28;19909;-74
2024/01/03 02:26:56;;;;;;;;;;;;;;;;;;5072772;28;19916;-73
2024/01/03 02:29:22;;;;;;;;;;;;;;;;;;5072866;28;20422;-74
2024/01/03 02:31:48;;;;;;;;;;;;;;;;;;5073091;28;19908;-74
2024/01/03 02:34:14;;;;;;;;;;;;;;;;;;5072741;28;19916;-74
2024/01/03 02:36:41;;;;;;;;;;;;;;;;;;5073082;28;19908;-73
2024/01/03 02:39:07;;;;;;;;;;;;;;;;;;5072400;28;20393;-73
2024/01/03 02:41:33;;;;;;;;;;;;;;;;;;5072520;28;20265;-73
2024/01/03 02:44:00;;;;;;;;;;;;;;;;;;5072541;28;20379;-73
2024/01/03 02:46:26;;;;;;;;;;;;;;;;;;5072710;28;19928;-73
2024/01/03 02:48:52;;;;;;;;;;;;;;;;;;5072718;28;19958;-73
2024/01/03 02:51:18;;;;;;;;;;;;;;;;;;5072503;28;19912;-73
2024/01/03 02:53:45;;;;;;;;;;;;;;;;;;5072499;28;19909;-73
2024/01/03 02:56:11;;;;;;;;;;;;;;;;;;5072283;28;19913;-72
2024/01/03 02:58:37;;;;;;;;;;;;;;;;;;5088088;28;20334;-73
2024/01/03 03:01:03;;;;;;;;;;;;;;;;;;5072898;28;19908;-73
2024/01/03 03:03:29;;;;;;;;;;;;;;;;;;5072286;28;19915;-73
2024/01/03 03:05:56;;;;;;;;;;;;;;;;;;5072416;28;20300;-73
2024/01/03 03:08:22;;;;;;;;;;;;;;;;;;5071995;28;19920;-73
2024/01/03 03:10:48;;;;;;;;;;;;;;;;;;5072321;28;19912;-73
2024/01/03 03:13:16;;;;;;;;;;;;;;;;;;5072476;28;19915;-73
2024/01/03 03:15:42;;;;;;;;;;;;;;;;;;5072590;28;19909;-73
2024/01/03 03:18:08;;;;;;;;;;;;;;;;;;5072045;28;19928;-73
2024/01/03 03:20:34;;;;;;;;;;;;;;;;;;5072552;28;19913;-73
2024/01/03 03:23:01;;;;;;;;;;;;;;;;;;5072312;28;19912;-73
2024/01/03 03:25:27;;;;;;;;;;;;;;;;;;5087631;28;19916;-73
2024/01/03 03:27:53;;;;;;;;;;;;;;;;;;5072126;28;19935;-73
2024/01/03 03:30:19;;;;;;;;;;;;;;;;;;5072468;28;19908;-73
2024/01/03 03:32:45;;;;;;;;;;;;;;;;;;5072105;28;19927;-73
2024/01/03 03:35:12;;;;;;;;;;;;;;;;;;5090680;28;19908;-73
2024/01/03 03:37:38;;;;;;;;;;;;;;;;;;5075902;28;19916;-73
2024/01/03 03:40:04;;;;;;;;;;;;;;;;;;5076069;28;20274;-73
2024/01/03 03:42:30;;;;;;;;;;;;;;;;;;5091697;28;19919;-73
2024/01/03 03:44:56;;;;;;;;;;;;;;;;;;5076298;28;19913;-73
2024/01/03 03:47:22;;;;;;;;;;;;;;;;;;5075736;28;19916;-73
2024/01/03 03:49:49;;;;;;;;;;;;;;;;;;5076175;28;19957;-73
2024/01/03 03:52:15;;;;;;;;;;;;;;;;;;5075412;28;19912;-73
2024/01/03 03:54:41;;;;;;;;;;;;;;;;;;5075814;28;19909;-73
2024/01/03 03:57:07;;;;;;;;;;;;;;;;;;5075487;28;20326;-74
2024/01/03 03:59:33;;;;;;;;;;;;;;;;;;5075730;28;19961;-73
2024/01/03 04:01:59;;;;;;;;;;;;;;;;;;5091137;28;19908;-73
2024/01/03 04:04:26;;;;;;;;;;;;;;;;;;5075632;28;19912;-73
2024/01/03 04:06:52;;;;;;;;;;;;;;;;;;5075237;28;20362;-73
2024/01/03 04:09:19;;;;;;;;;;;;;;;;;;5075286;28;19942;-73
2024/01/03 04:11:45;;;;;;;;;;;;;;;;;;5075794;28;19915;-73
2024/01/03 04:14:11;;;;;;;;;;;;;;;;;;5075564;28;19919;-73
2024/01/03 04:16:37;;;;;;;;;;;;;;;;;;5075242;28;20269;-73
2024/01/03 04:19:04;;;;;;;;;;;;;;;;;;5075714;28;19912;-73
2024/01/03 04:21:30;;;;;;;;;;;;;;;;;;5075190;28;19935;-73
2024/01/03 04:23:56;;;;;;;;;;;;;;;;;;5075502;28;19912;-74
2024/01/03 04:26:22;;;;;;;;;;;;;;;;;;5075229;28;19923;-73
2024/01/03 04:28:48;;;;;;;;;;;;;;;;;;5075012;28;20637;-73
2024/01/03 04:31:14;;;;;;;;;;;;;;;;;;5091081;28;19909;-73
2024/01/03 04:33:41;;;;;;;;;;;;;;;;;;5075018;28;19912;-73
2024/01/03 04:36:07;;;;;;;;;;;;;;;;;;5074877;28;19915;-73
2024/01/03 04:38:33;;;;;;;;;;;;;;;;;;5075154;28;19962;-73
2024/01/03 04:40:59;;;;;;;;;;;;;;;;;;5075258;28;19908;-74
2024/01/03 04:43:25;;;;;;;;;;;;;;;;;;5074788;28;19908;-73
2024/01/03 04:45:51;;;;;;;;;;;;;;;;;;5074098;28;20342;-73
2024/01/03 04:48:18;;;;;;;;;;;;;;;;;;5074704;28;19912;-73
2024/01/03 04:50:44;;;;;;;;;;;;;;;;;;5074349;28;20407;-73
2024/01/03 04:53:10;;;;;;;;;;;;;;;;;;5074962;28;19909;-73
2024/01/03 04:55:36;;;;;;;;;;;;;;;;;;5074928;28;19934;-73
2024/01/03 04:58:02;;;;;;;;;;;;;;;;;;5074948;28;19915;-72
2024/01/03 05:00:30;;;;;;;;;;;;;;;;;;5090372;28;19915;-73
2024/01/03 05:02:56;;;;;;;;;;;;;;;;;;5074498;28;19916;-73
2024/01/03 05:05:23;;;;;;;;;;;;;;;;;;5073972;28;20158;-72
2024/01/03 05:07:49;;;;;;;;;;;;;;;;;;5074337;28;19921;-73
2024/01/03 05:10:15;;;;;;;;;;;;;;;;;;5074482;28;20378;-73
2024/01/03 05:12:41;;;;;;;;;;;;;;;;;;5074386;28;19914;-73
2024/01/03 05:15:07;;;;;;;;;;;;;;;;;;5074271;28;19908;-73
2024/01/03 05:17:33;;;;;;;;;;;;;;;;;;5074167;28;20288;-74
2024/01/03 05:20:00;;;;;;;;;;;;;;;;;;5073840;28;19954;-73
2024/01/03 05:22:26;;;;;;;;;;;;;;;;;;5074149;28;20307;-73
2024/01/03 05:24:52;;;;;;;;;;;;;;;;;;5074181;28;19918;-73
2024/01/03 05:27:20;;;;;;;;;;;;;;;;;;5073935;28;19916;-73
2024/01/03 05:29:47;;;;;;;;;;;;;;;;;;5089863;28;19908;-74
2024/01/03 05:32:13;;;;;;;;;;;;;;;;;;5074159;28;19932;-73
2024/01/03 05:34:39;;;;;;;;;;;;;;;;;;5073814;28;19953;-74
2024/01/03 05:37:06;;;;;;;;;;;;;;;;;;5073999;28;19923;-73
2024/01/03 05:39:32;;;;;;;;;;;;;;;;;;5073858;28;19909;-73
2024/01/03 05:41:58;;;;;;;;;;;;;;;;;;5073577;28;19912;-73
2024/01/03 05:44:24;;;;;;;;;;;;;;;;;;5074119;28;19909;-73
2024/01/03 05:46:51;;;;;;;;;;;;;;;;;;5073485;28;19923;-73
2024/01/03 05:49:17;;;;;;;;;;;;;;;;;;5073063;28;19915;-74
2024/01/03 05:51:43;;;;;;;;;;;;;;;;;;5073895;28;19981;-73
2024/01/03 05:54:09;;;;;;;;;;;;;;;;;;5073712;28;19919;-73
2024/01/03 05:56:37;;;;;;;;;;;;;;;;;;5073415;28;19915;-73
2024/01/03 05:59:03;;;;;;;;;;;;;;;;;;5072610;28;19973;-73
2024/01/03 06:01:30;;;;;;;;;;;;;;;;;;5073179;28;19913;-72
2024/01/03 06:03:56;;;;;;;;;;;;;;;;;;5073047;28;19963;-74
2024/01/03 06:06:22;;;;;;;;;;;;;;;;;;5073411;28;19939;-73
2024/01/03 06:08:48;;;;;;;;;;;;;;;;;;5073069;28;19973;-73
2024/01/03 06:11:14;;;;;;;;;;;;;;;;;;5073099;28;19909;-73
2024/01/03 06:13:40;;;;;;;;;;;;;;;;;;5073290;28;20361;-73
2024/01/03 06:16:07;;;;;;;;;;;;;;;;;;5072978;28;19913;-73
2024/01/03 06:18:33;;;;;;;;;;;;;;;;;;5072604;28;20292;-73
2024/01/03 06:20:59;;;;;;;;;;;;;;;;;;5089086;28;19909;-73
2024/01/03 06:23:25;;;;;;;;;;;;;;;;;;5072879;28;19915;-73
2024/01/03 06:25:52;;;;;;;;;;;;;;;;;;5072976;28;19969;-73
2024/01/03 06:28:18;;;;;;;;;;;;;;;;;;5072787;28;19908;-73
2024/01/03 06:30:44;;;;;;;;;;;;;;;;;;5072621;28;20365;-74
2024/01/03 06:33:10;;;;;;;;;;;;;;;;;;5072435;28;19912;-73
2024/01/03 06:35:36;;;;;;;;;;;;;;;;;;5072894;28;19916;-73
2024/01/03 06:38:03;;;;;;;;;;;;;;;;;;5072720;28;19908;-73
2024/01/03 06:40:30;;;;;;;;;;;;;;;;;;5072668;28;19930;-73
2024/01/03 06:42:56;;;;;;;;;;;;;;;;;;5072842;28;19919;-73
2024/01/03 06:45:22;;;;;;;;;;;;;;;;;;5072150;28;20375;-74
2024/01/03 06:47:48;;;;;;;;;;;;;;;;;;5072576;28;19908;-73
2024/01/03 06:50:14;;;;;;;;;;;;;;;;;;5072506;28;19917;-73
2024/01/03 06:52:41;;;;;;;;;;;;;;;;;;5072984;28;19915;-73
2024/01/03 06:55:07;;;;;;;;;;;;;;;;;;5072389;28;20328;-73
2024/01/03 06:57:34;;;;;;;;;;;;;;;;;;5072645;28;19908;-73
2024/01/03 07:00:00;;;;;;;;;;;;;;;;;;5072073;28;19908;-73
2024/01/03 07:02:26;;;;;;;;;;;;;;;;;;5072298;28;19932;-74
2024/01/03 07:04:52;;;;;;;;;;;;;;;;;;5072421;28;19908;-74
2024/01/03 07:07:19;;;;;;;;;;;;;;;;;;5072119;28;19920;-73
2024/01/03 07:09:45;;;;;;;;;;;;;;;;;;5072166;28;19921;-73
2024/01/03 07:12:11;;;;;;;;;;;;;;;;;;5072277;28;19915;-73
2024/01/03 07:14:37;;;;;;;;;;;;;;;;;;5071967;28;20393;-73
2024/01/03 07:17:03;;;;;;;;;;;;;;;;;;5072347;28;20329;-73
2024/01/03 07:19:30;;;;;;;;;;;;;;;;;;5072640;28;19913;-73
2024/01/03 07:21:56;;;;;;;;;;;;;;;;;;5072577;28;19923;-73
2024/01/03 07:24:23;;;;;;;;;;;;;;;;;;5072256;28;20304;-73
2024/01/03 07:26:49;;;;;;;;;;;;;;;;;;5072088;28;19924;-72
2024/01/03 07:29:15;;;;;;;;;;;;;;;;;;5071713;28;19915;-73
2024/01/03 07:31:42;;;;;;;;;;;;;;;;;;5072191;28;19908;-73
2024/01/03 07:34:08;;;;;;;;;;;;;;;;;;5072389;28;20398;-73
2024/01/03 07:36:34;;;;;;;;;;;;;;;;;;5072130;28;20270;-73
2024/01/03 07:39:02;;;;;;;;;;;;;;;;;;5072063;28;19920;-73
2024/01/03 07:41:29;;;;;;;;;;;;;;;;;;5071998;28;19909;-73
2024/01/03 07:43:55;;;;;;;;;;;;;;;;;;5072032;28;19912;-74
2024/01/03 07:46:22;;;;;;;;;;;;;;;;;;5072135;28;19916;-73
2024/01/03 07:48:49;;;;;;;;;;;;;;;;;;5071790;28;19913;-72
2024/01/03 07:51:15;;;;;;;;;;;;;;;;;;5071833;28;19912;-73
2024/01/03 07:53:41;;;;;;;;;;;;;;;;;;5072049;28;19913;-74
2024/01/03 07:56:08;;;;;;;;;;;;;;;;;;5053781;28;19913;-73
2024/01/03 07:58:34;;;;;;;;;;;;;;;;;;5071900;28;19934;-74
2024/01/03 08:01:00;;;;;;;;;;;;;;;;;;5071911;28;19913;-73
2024/01/03 08:03:26;;;;;;;;;;;;;;;;;;5072527;28;19919;-73
2024/01/03 08:05:53;;;;;;;;;;;;;;;;;;5071743;28;19917;-74
2024/01/03 08:08:19;;;;;;;;;;;;;;;;;;5071719;28;19924;-73
2024/01/03 08:10:45;;;;;;;;;;;;;;;;;;5053787;28;20278;-73
2024/01/03 08:13:12;;;;;;;;;;;;;;;;;;5071522;28;19912;-74
2024/01/03 08:15:38;;;;;;;;;;;;;;;;;;5072113;28;19916;-73
2024/01/03 08:18:04;;;;;;;;;;;;;;;;;;5071623;28;19908;-73
2024/01/03 08:20:30;;;;;;;;;;;;;;;;;;5071738;28;19909;-74
2024/01/03 08:22:57;;;;;;;;;;;;;;;;;;5075082;28;19912;-73
2024/01/03 08:25:23;;;;;;;;;;;;;;;;;;5075166;28;19937;-73
2024/01/03 08:27:49;;;;;;;;;;;;;;;;;;5074929;28;19920;-73
2024/01/03 08:30:15;;;;;;;;;;;;;;;;;;5075348;28;19919;-73
2024/01/03 08:32:41;;;;;;;;;;;;;;;;;;5075020;28;19908;-73
2024/01/03 08:35:08;;;;;;;;;;;;;;;;;;5075090;28;19909;-73
2024/01/03 08:37:34;;;;;;;;;;;;;;;;;;5075221;28;19934;-74
2024/01/03 08:40:01;;;;;;;;;;;;;;;;;;5075298;28;19912;-73
2024/01/03 08:42:27;;;;;;;;;;;;;;;;;;5074949;28;19908;-73
2024/01/03 08:44:53;;;;;;;;;;;;;;;;;;5074428;28;19923;-73
2024/01/03 08:47:19;;;;;;;;;;;;;;;;;;5074572;28;19923;-73
2024/01/03 08:49:45;;;;;;;;;;;;;;;;;;5074878;28;19912;-74
2024/01/03 08:52:12;;;;;;;;;;;;;;;;;;5074618;28;20296;-73
2024/01/03 08:54:38;;;;;;;;;;;;;;;;;;5074452;28;19961;-73
2024/01/03 08:57:04;;;;;;;;;;;;;;;;;;5074328;28;20421;-74
2024/01/03 08:59:31;;;;;;;;;;;;;;;;;;5074646;28;19913;-74
2024/01/03 09:01:57;;;;;;;;;;;;;;;;;;5074678;28;20385;-73
2024/01/03 09:04:23;;;;;;;;;;;;;;;;;;5074676;28;19908;-73
2024/01/03 09:06:51;;;;;;;;;;;;;;;;;;5074352;28;20430;-73
2024/01/03 09:09:17;;;;;;;;;;;;;;;;;;5074233;28;19920;-74
2024/01/03 09:11:43;;;;;;;;;;;;;;;;;;5074077;28;19908;-73
2024/01/03 09:14:09;;;;;;;;;;;;;;;;;;5074347;28;20273;-74
2024/01/03 09:16:35;;;;;;;;;;;;;;;;;;5074339;28;19908;-73
2024/01/03 09:19:02;;;;;;;;;;;;;;;;;;5074363;28;20296;-73
2024/01/03 09:21:30;;;;;;;;;;;;;;;;;;5074116;28;19908;-73
2024/01/03 09:23:56;;;;;;;;;;;;;;;;;;5074121;28;19913;-73
2024/01/03 09:26:23;;;;;;;;;;;;;;;;;;5073701;28;20342;-73
2024/01/03 09:28:49;;;;;;;;;;;;;;;;;;5074043;28;19918;-73
2024/01/03 09:31:15;;;;;;;;;;;;;;;;;;5074181;28;19915;-73
2024/01/03 09:33:41;;;;;;;;;;;;;;;;;;5074239;28;19909;-74
2024/01/03 09:36:07;;;;;;;;;;;;;;;;;;5074159;28;20300;-73
2024/01/03 09:38:34;;;;;;;;;;;;;;;;;;5073857;28;19909;-73
2024/01/03 09:41:00;;;;;;;;;;;;;;;;;;5073516;28;19919;-73
2024/01/03 09:43:26;;;;;;;;;;;;;;;;;;5073613;28;19913;-73
2024/01/03 09:45:52;;;;;;;;;;;;;;;;;;5073710;28;19917;-74
2024/01/03 09:48:18;;;;;;;;;;;;;;;;;;5073744;28;19908;-73
2024/01/03 09:50:45;;;;;;;;;;;;;;;;;;5073678;28;19913;-74
2024/01/03 09:53:11;;;;;;;;;;;;;;;;;;5073508;28;19912;-73
2024/01/03 09:55:37;;;;;;;;;;;;;;;;;;5073418;28;19908;-73
2024/01/03 09:58:03;;;;;;;;;;;;;;;;;;5073364;28;19908;-73
2024/01/03 10:00:30;;;;;;;;;;;;;;;;;;5073426;28;20296;-73
2024/01/03 10:02:56;;;;;;;;;;;;;;;;;;5073762;28;19913;-73
2024/01/03 10:05:22;;;;;;;;;;;;;;;;;;5055755;28;19909;-73
2024/01/03 10:07:48;;;;;;;;;;;;;;;;;;5073174;28;19935;-74
2024/01/03 10:10:15;;;;;;;;;;;;;;;;;;5072890;28;19919;-74
2024/01/03 10:12:41;;;;;;;;;;;;;;;;;;5088683;28;19912;-74
2024/01/03 10:15:07;;;;;;;;;;;;;;;;;;5088795;28;19908;-73
2024/01/03 10:17:33;;;;;;;;;;;;;;;;;;5073191;28;20377;-73
2024/01/03 10:19:59;;;;;;;;;;;;;;;;;;5073149;28;20266;-74
2024/01/03 10:22:26;;;;;;;;;;;;;;;;;;5073287;28;19915;-74
2024/01/03 10:24:52;;;;;;;;;;;;;;;;;;5055022;28;19916;-73
2024/01/03 10:27:19;;;;;;;;;;;;;;;;;;5072797;28;20304;-73
2024/01/03 10:29:46;;;;;;;;;;;;;;;;;;5072955;28;19908;-73
2024/01/03 10:32:12;;;;;;;;;;;;;;;;;;5073003;28;19912;-74
2024/01/03 10:34:38;;;;;;;;;;;;;;;;;;5072826;28;19909;-74
2024/01/03 10:37:04;;;;;;;;;;;;;;;;;;5072785;28;19915;-73
2024/01/03 10:39:30;;;;;;;;;;;;;;;;;;5072458;28;19908;-74
2024/01/03 10:41:56;;;;;;;;;;;;;;;;;;5072610;28;19916;-74
2024/01/03 10:44:23;;;;;;;;;;;;;;;;;;5072288;28;19962;-73
2024/01/03 10:46:49;;;;;;;;;;;;;;;;;;5072631;28;19920;-74
2024/01/03 10:49:18;;;;;;;;;;;;;;;;;;5088506;28;19909;-74
2024/01/03 10:51:44;;;;;;;;;;;;;;;;;;5072978;28;19919;-80
2024/01/03 10:54:11;;;;;;;;;;;;;;;;;;5072073;28;19908;-68
2024/01/03 10:56:37;;;;;;;;;;;;;;;;;;5072767;28;19909;-68
2024/01/03 10:59:03;;;;;;;;;;;;;;;;;;5072802;28;20025;-69
2024/01/03 11:01:29;;;;;;;;;;;;;;;;;;5072400;28;19913;-69
2024/01/03 11:03:55;;;;;;;;;;;;;;;;;;5071381;28;19930;-69
2024/01/03 11:06:22;;;;;;;;;;;;;;;;;;5072446;28;19966;-69
2024/01/03 11:08:49;;;;;;;;;;;;;;;;;;5071268;28;19927;-71
2024/01/03 11:11:15;;;;;;;;;;;;;;;;;;5054208;28;20278;-71
2024/01/03 11:13:41;;;;;;;;;;;;;;;;;;5088103;28;19912;-71
2024/01/03 11:16:09;;;;;;;;;;;;;;;;;;5072199;28;19908;-71
2024/01/03 11:18:35;;;;;;;;;;;;;;;;;;5072248;28;19908;-71
2024/01/03 11:21:02;;;;;;;;;;;;;;;;;;5071891;28;20374;-71
2024/01/03 11:23:28;;;;;;;;;;;;;;;;;;5072140;28;20308;-71
2024/01/03 11:25:54;;;;;;;;;;;;;;;;;;5072272;28;19930;-71
2024/01/03 11:28:20;;;;;;;;;;;;;;;;;;5072484;28;19909;-71
2024/01/03 11:30:46;;;;;;;;;;;;;;;;;;5087692;28;19923;-72
2024/01/03 11:33:13;;;;;;;;;;;;;;;;;;5072030;28;19915;-71
2024/01/03 11:35:39;;;;;;;;;;;;;;;;;;5087776;28;19994;-73
2024/01/03 11:38:05;;;;;;;;;;;;;;;;;;5071980;28;19961;-73
2024/01/03 11:40:31;;;;;;;;;;;;;;;;;;5072259;28;19913;-73
2024/01/03 11:42:57;;;;;;;;;;;;;;;;;;5071932;28;20265;-73
2024/01/03 11:45:24;;;;;;;;;;;;;;;;;;5072044;28;19908;-73
2024/01/03 11:47:52;;;;;;;;;;;;;;;;;;5071742;28;20343;-73
2024/01/03 11:50:19;;;;;;;;;;;;;;;;;;5071788;28;19909;-75
2024/01/03 11:52:49;;;;;;;;;;;;;;;;;;5054022;28;20383;-72
2024/01/03 11:55:16;;;;;;;;;;;;;;;;;;5072091;28;19904;-72
2024/01/03 11:57:42;;;;;;;;;;;;;;;;;;5075238;28;20258;-72
2024/01/03 12:00:08;;;;;;;;;;;;;;;;;;5075731;28;19908;-71
2024/01/03 12:02:34;;;;;;;;;;;;;;;;;;5075589;28;20365;-72
2024/01/03 12:05:01;;;;;;;;;;;;;;;;;;5075426;28;19923;-72
2024/01/03 12:07:27;;;;;;;;;;;;;;;;;;5075291;28;20045;-72
2024/01/03 12:09:53;;;;;;;;;;;;;;;;;;5075884;28;19950;-72
2024/01/03 12:12:19;;;;;;;;;;;;;;;;;;5075922;28;19961;-72
2024/01/03 12:14:45;;;;;;;;;;;;;;;;;;5075547;28;19909;-72
2024/01/03 12:17:11;;;;;;;;;;;;;;;;;;5091174;28;20373;-72
2024/01/03 12:19:37;;;;;;;;;;;;;;;;;;5075405;28;19909;-73
2024/01/03 12:22:04;;;;;;;;;;;;;;;;;;5075206;28;19919;-72
2024/01/03 12:24:30;;;;;;;;;;;;;;;;;;5075321;28;19915;-72
2024/01/03 12:26:56;;;;;;;;;;;;;;;;;;5075083;28;20458;-72
2024/01/03 12:29:22;;;;;;;;;;;;;;;;;;5075604;28;19908;-72
2024/01/03 12:31:48;;;;;;;;;;;;;;;;;;5075561;28;19909;-72
2024/01/03 12:34:15;;;;;;;;;;;;;;;;;;5075033;28;19912;-72
2024/01/03 12:36:41;;;;;;;;;;;;;;;;;;5075384;28;19912;-72
2024/01/03 12:39:08;;;;;;;;;;;;;;;;;;5075082;28;19919;-72
2024/01/03 12:41:34;;;;;;;;;;;;;;;;;;5074892;28;19909;-72
2024/01/03 12:44:00;;;;;;;;;;;;;;;;;;5056924;28;20389;-72
2024/01/03 12:46:26;;;;;;;;;;;;;;;;;;5075245;28;19916;-72
2024/01/03 12:48:52;;;;;;;;;;;;;;;;;;5074779;28;19909;-73
2024/01/03 12:51:19;;;;;;;;;;;;;;;;;;5074702;28;20262;-72
2024/01/03 12:53:45;;;;;;;;;;;;;;;;;;5075112;28;19908;-72
2024/01/03 12:56:11;;;;;;;;;;;;;;;;;;5074480;28;19913;-72
2024/01/03 12:58:37;;;;;;;;;;;;;;;;;;5074616;28;19909;-73
2024/01/03 13:01:03;;;;;;;;;;;;;;;;;;5074618;28;19908;-72
2024/01/03 13:03:30;;;;;;;;;;;;;;;;;;5074126;28;19928;-72
2024/01/03 13:05:56;;;;;;;;;;;;;;;;;;5056399;28;20369;-72
2024/01/03 13:08:22;;;;;;;;;;;;;;;;;;5073987;28;19927;-72
2024/01/03 13:10:48;;;;;;;;;;;;;;;;;;5074241;28;20281;-72
2024/01/03 13:13:15;;;;;;;;;;;;;;;;;;5074702;28;19908;-72
2024/01/03 13:15:43;;;;;;;;;;;;;;;;;;5074404;28;19909;-72
2024/01/03 13:18:10;;;;;;;;;;;;;;;;;;5073831;28;20381;-72
2024/01/03 13:20:36;;;;;;;;;;;;;;;;;;5074497;28;19909;-72
2024/01/03 13:23:02;;;;;;;;;;;;;;;;;;5074324;28;19909;-72
2024/01/03 13:25:28;;;;;;;;;;;;;;;;;;5072944;28;19915;-72
2024/01/03 13:27:54;;;;;;;;;;;;;;;;;;5074275;28;19921;-72
2024/01/03 13:30:20;;;;;;;;;;;;;;;;;;5074233;28;19923;-72
2024/01/03 13:32:47;;;;;;;;;;;;;;;;;;5073619;28;19918;-72
2024/01/03 13:35:13;;;;;;;;;;;;;;;;;;5073986;28;20319;-72
2024/01/03 13:37:39;;;;;;;;;;;;;;;;;;5073926;28;19909;-72
2024/01/03 13:40:06;;;;;;;;;;;;;;;;;;5073818;28;19915;-72
2024/01/03 13:42:32;;;;;;;;;;;;;;;;;;5073764;28;19914;-72
2024/01/03 13:44:58;;;;;;;;;;;;;;;;;;5073893;28;20387;-72
2024/01/03 13:47:25;;;;;;;;;;;;;;;;;;5073379;28;20428;-72
2024/01/03 13:49:51;;;;;;;;;;;;;;;;;;5089848;28;19919;-72
2024/01/03 13:52:18;;;;;;;;;;;;;;;;;;5073674;28;19908;-73
2024/01/03 13:54:45;;;;;;;;;;;;;;;;;;5073536;28;20381;-72
2024/01/03 13:57:11;;;;;;;;;;;;;;;;;;5073731;28;19908;-72
2024/01/03 13:59:37;;;;;;;;;;;;;;;;;;5073843;28;19917;-72
2024/01/03 14:02:03;;;;;;;;;;;;;;;;;;5073019;28;19914;-72
2024/01/03 14:04:30;;;;;;;;;;;;;;;;;;5089122;28;19922;-72
2024/01/03 14:06:56;;;;;;;;;;;;;;;;;;5055852;28;19923;-72
2024/01/03 14:09:22;;;;;;;;;;;;;;;;;;5073294;28;19931;-72
2024/01/03 14:11:48;;;;;;;;;;;;;;;;;;5073298;28;19953;-72
2024/01/03 14:14:16;;;;;;;;;;;;;;;;;;5072320;28;21478;-72
2024/01/03 14:16:42;;;;;;;;;;;;;;;;;;5072838;28;20300;-72
2024/01/03 14:19:08;;;;;;;;;;;;;;;;;;5072738;28;19909;-72
2024/01/03 14:21:35;;;;;;;;;;;;;;;;;;5072992;28;20335;-72
2024/01/03 14:24:01;;;;;;;;;;;;;;;;;;5073211;28;19912;-72
2024/01/03 14:26:27;;;;;;;;;;;;;;;;;;5072898;28;19913;-72
2024/01/03 14:28:53;;;;;;;;;;;;;;;;;;5072870;28;19908;-72
2024/01/03 14:31:25;;;;;;;;;;;;;;;;;;5072535;28;20365;-72
2024/01/03 14:33:51;;;;;;;;;;;;;;;;;;5073100;28;19962;-72
2024/01/03 14:36:18;;;;;;;;;;;;;;;;;;5072839;28;19913;-72
2024/01/03 14:38:44;;;;;;;;;;;;;;;;;;5073024;28;19912;-72
2024/01/03 14:41:14;;;;;;;;;;;;;;;;;;5072626;28;19912;-72
2024/01/03 14:43:44;;;;;;;;;;;;;;;;;;5073046;28;19912;-72
2024/01/03 14:46:10;;;;;;;;;;;;;;;;;;5072125;28;19917;-72
2024/01/03 14:48:36;;;;;;;;;;;;;;;;;;5072581;28;19920;-72
2024/01/03 14:51:06;;;;;;;;;;;;;;;;;;5072518;28;19916;-72
2024/01/03 14:53:32;;;;;;;;;;;;;;;;;;5072523;28;19916;-72
2024/01/03 14:55:58;;;;;;;;;;;;;;;;;;5054757;28;19908;-72
2024/01/03 14:58:26;;;;;;;;;;;;;;;;;;5072253;28;19908;-72
2024/01/03 15:00:52;;;;;;;;;;;;;;;;;;5072485;28;20276;-72
2024/01/03 15:03:18;;;;;;;;;;;;;;;;;;5072451;28;19908;-72
2024/01/03 15:05:46;;;;;;;;;;;;;;;;;;5072734;28;19912;-72
2024/01/03 15:08:14;;;;;;;;;;;;;;;;;;5076496;28;20309;-72
2024/01/03 15:10:41;;;;;;;;;;;;;;;;;;5032460;28;19913;-72
2024/01/03 15:13:07;;;;;;;;;;;;;;;;;;5032455;28;19916;-72
2024/01/03 15:15:35;;;;;;;;;;;;;;;;;;5032559;28;19916;-72
2024/01/03 15:18:01;;;;;;;;;;;;;;;;;;5032533;28;19913;-74
2024/01/03 15:20:27;;;;;;;;;;;;;;;;;;5032387;28;19962;-72
2024/01/03 15:22:55;;;;;;;;;;;;;;;;;;5032473;28;19913;-72
2024/01/03 15:25:21;;;;;;;;;;;;;;;;;;5032253;28;19955;-72
2024/01/03 15:27:48;;;;;;;;;;;;;;;;;;5031971;28;19927;-72
2024/01/03 15:30:16;;;;;;;;;;;;;;;;;;5033356;28;19913;-72
2024/01/03 15:32:42;;;;;;;;;;;;;;;;;;5068467;28;19915;-72
2024/01/03 15:35:08;;;;;;;;;;;;;;;;;;5035348;28;19909;-72
2024/01/03 15:37:35;;;;;;;;;;;;;;;;;;5036250;28;19958;-72
2024/01/03 15:40:01;;;;;;;;;;;;;;;;;;5036418;28;19913;-72
2024/01/03 15:42:27;;;;;;;;;;;;;;;;;;5035949;28;19913;-71
2024/01/03 15:44:53;;;;;;;;;;;;;;;;;;5036106;28;19913;-72
2024/01/03 15:47:19;;;;;;;;;;;;;;;;;;5034594;28;19923;-72
2024/01/03 15:49:45;;;;;;;;;;;;;;;;;;5036364;28;19913;-72
2024/01/03 15:52:13;;;;;;;;;;;;;;;;;;5036029;28;19917;-72
2024/01/03 15:54:39;;;;;;;;;;;;;;;;;;5036003;28;20390;-72
2024/01/03 15:57:05;;;;;;;;;;;;;;;;;;5034322;28;19909;-71
2024/01/03 15:59:32;;;;;;;;;;;;;;;;;;5036002;28;19913;-72
2024/01/03 16:01:59;;;;;;;;;;;;;;;;;;5035642;28;19913;-70
2024/01/03 16:04:25;;;;;;;;;;;;;;;;;;5035783;28;19915;-72
2024/01/03 16:06:51;;;;;;;;;;;;;;;;;;5035580;28;19931;-72
2024/01/03 16:09:17;;;;;;;;;;;;;;;;;;5069131;28;19931;-72
2024/01/03 16:11:44;;;;;;;;;;;;;;;;;;5075257;28;19912;-72
2024/01/03 16:14:10;;;;;;;;;;;;;;;;;;5075333;28;20404;-72
2024/01/03 16:16:37;;;;;;;;;;;;;;;;;;5075375;28;19918;-72
2024/01/03 16:19:03;;;;;;;;;;;;;;;;;;5075591;28;19922;-72
2024/01/03 16:21:29;;;;;;;;;;;;;;;;;;5075589;28;19912;-72
2024/01/03 16:23:56;;;;;;;;;;;;;;;;;;5057323;28;20392;-72
2024/01/03 16:26:22;;;;;;;;;;;;;;;;;;5075125;28;20300;-72
2024/01/03 16:28:51;;;;;;;;;;;;;;;;;;5075206;28;19922;-72
2024/01/03 16:31:17;;;;;;;;;;;;;;;;;;5075145;28;19926;-72
2024/01/03 16:33:43;;;;;;;;;;;;;;;;;;5075145;28;19923;-72
2024/01/03 16:36:09;;;;;;;;;;;;;;;;;;5074898;28;20335;-72
2024/01/03 16:38:36;;;;;;;;;;;;;;;;;;5075205;28;19908;-72